Time;durP1;ratioP1;P1;durP2;ratioP2;P2;SDS_P1;SDS_P2;PMS_P1;PMS_P2;Temp;Humidity;BMP_temperature;BMP_pressure;BME280_temperature;BME280_humidity;BME280_pressure;Samples;Min_cycle;Max_cycle;Signal;HPM_P1;HPM_P2
2022/03/10 00:01:41;;;;;;;;;;;11.30;99.90;;;;;;5051022;28;20426;-90
2022/03/10 00:04:07;;;;;;;;;;;11.20;99.90;;;;;;5051161;28;19916;-90
2022/03/10 00:06:32;;;;;;;;;;;11.20;99.90;;;;;;5050749;28;19919;-90
2022/03/10 00:08:58;;;;;;;;;;;11.10;99.90;;;;;;5050987;28;19909;-89
2022/03/10 00:11:23;;;;;;;;;;;11.00;99.90;;;;;;5051880;28;19984;-89
2022/03/10 00:13:50;;;;;;;;;;;10.80;99.90;;;;;;5050819;28;19959;-89
2022/03/10 00:16:15;;;;;;;;;;;10.80;99.90;;;;;;5032709;28;20362;-89
2022/03/10 00:18:41;;;;;;;;;;;10.80;99.90;;;;;;5033029;28;19948;-89
2022/03/10 00:21:06;;;;;;;;;;;10.90;99.90;;;;;;5050625;28;20005;-90
2022/03/10 00:23:32;;;;;;;;;;;10.90;99.90;;;;;;5050728;28;19919;-90
2022/03/10 00:25:58;;;;;;;;;;;10.90;99.90;;;;;;5051014;28;20406;-89
2022/03/10 00:28:23;;;;;;;;;;;11.00;99.90;;;;;;5050709;28;19916;-90
2022/03/10 00:30:49;;;;;;;;;;;11.00;99.90;;;;;;5050344;28;20456;-89
2022/03/10 00:33:15;;;;;;;;;;;11.10;99.90;;;;;;5050626;28;19952;-89
2022/03/10 00:35:41;;;;;;;;;;;11.10;99.90;;;;;;5032435;28;20158;-90
2022/03/10 00:38:06;;;;;;;;;;;11.10;99.90;;;;;;5032298;28;20178;-90
2022/03/10 00:40:32;;;;;;;;;;;11.10;99.90;;;;;;5050247;28;19921;-89
2022/03/10 00:42:58;;;;;;;;;;;11.10;99.90;;;;;;5034654;28;19954;-89
2022/03/10 00:45:25;;;;;;;;;;;11.20;99.90;;;;;;5051251;28;20289;-90
2022/03/10 00:47:51;;;;;;;;;;;11.20;99.90;;;;;;5033597;28;19916;-90
2022/03/10 00:50:17;;;;;;;;;;;11.30;99.90;;;;;;5053855;28;19909;-90
2022/03/10 00:52:44;;;;;;;;;;;11.30;99.90;;;;;;5032580;28;20268;-90
2022/03/10 00:55:10;;;;;;;;;;;11.30;99.90;;;;;;5032261;28;19915;-90
2022/03/10 00:57:36;;;;;;;;;;;11.40;99.90;;;;;;5032207;28;19916;-90
2022/03/10 01:00:03;;;;;;;;;;;11.40;99.90;;;;;;5032980;28;20348;-90
2022/03/10 01:02:30;;;;;;;;;;;11.40;99.90;;;;;;5025562;28;19908;-90
2022/03/10 01:04:55;;;;;;;;;;;11.40;99.90;;;;;;5050992;28;20000;-90
2022/03/10 01:07:21;;;;;;;;;;;11.50;99.90;;;;;;5050847;28;19999;-90
2022/03/10 01:09:47;;;;;;;;;;;11.50;99.90;;;;;;5050089;28;20323;-89
2022/03/10 01:12:12;;;;;;;;;;;11.50;99.90;;;;;;5050343;28;19936;-90
2022/03/10 01:14:38;;;;;;;;;;;11.50;99.90;;;;;;5033637;28;19909;-90
2022/03/10 01:17:04;;;;;;;;;;;11.60;99.90;;;;;;5049687;28;20556;-90
2022/03/10 01:19:29;;;;;;;;;;;11.50;99.90;;;;;;5031944;28;19940;-90
2022/03/10 01:21:55;;;;;;;;;;;11.50;99.90;;;;;;5049833;28;19909;-90
2022/03/10 01:24:21;;;;;;;;;;;11.50;99.90;;;;;;5032663;28;20392;-90
2022/03/10 01:26:46;;;;;;;;;;;11.50;99.90;;;;;;5050668;28;19962;-90
2022/03/10 01:29:13;;;;;;;;;;;11.50;99.90;;;;;;5051414;28;19905;-90
2022/03/10 01:31:39;;;;;;;;;;;11.50;99.90;;;;;;5032932;28;19909;-90
2022/03/10 01:34:04;;;;;;;;;;;11.60;99.90;;;;;;5049414;28;19913;-90
2022/03/10 01:36:30;;;;;;;;;;;11.60;99.90;;;;;;5049700;28;19909;-90
2022/03/10 01:38:55;;;;;;;;;;;11.60;99.90;;;;;;5031523;28;20415;-90
2022/03/10 01:41:21;;;;;;;;;;;11.60;99.90;;;;;;5049592;28;19921;-90
2022/03/10 01:44:00;;;;;;;;;;;11.70;99.90;;;;;;5032950;28;20039;-90
2022/03/10 01:46:26;;;;;;;;;;;11.70;99.90;;;;;;5031579;28;19909;-90
2022/03/10 01:48:52;;;;;;;;;;;11.70;99.90;;;;;;5053019;28;19917;-90
2022/03/10 01:51:18;;;;;;;;;;;11.70;99.90;;;;;;5033935;28;19940;-90
2022/03/10 01:53:43;;;;;;;;;;;11.70;99.90;;;;;;5049702;28;20443;-91
2022/03/10 01:56:10;;;;;;;;;;;11.70;99.90;;;;;;5032723;28;20402;-91
2022/03/10 01:58:36;;;;;;;;;;;11.70;99.90;;;;;;5035543;28;19966;-90
2022/03/10 02:01:02;;;;;;;;;;;11.70;99.90;;;;;;5035265;28;20403;-90
2022/03/10 02:03:27;;;;;;;;;;;11.70;99.90;;;;;;5036991;28;19972;-90
2022/03/10 02:05:54;;;;;;;;;;;11.70;99.90;;;;;;5035221;28;19999;-90
2022/03/10 02:11:05;;;;;;;;;;;11.70;99.90;;;;;;5053985;28;19974;-91
2022/03/10 02:13:30;;;;;;;;;;;11.70;99.90;;;;;;5053025;28;20372;-91
2022/03/10 02:18:40;;;;;;;;;;;11.70;99.90;;;;;;5054227;28;19916;-91
2022/03/10 02:21:05;;;;;;;;;;;11.60;99.90;;;;;;5052985;28;19916;-90
2022/03/10 02:23:31;;;;;;;;;;;11.60;99.90;;;;;;5053012;28;19913;-90
2022/03/10 02:26:00;;;;;;;;;;;11.60;99.90;;;;;;5054340;28;19916;-90
2022/03/10 02:28:43;;;;;;;;;;;11.60;99.90;;;;;;5052295;28;19969;-90
2022/03/10 02:31:09;;;;;;;;;;;11.60;99.90;;;;;;5034915;28;19908;-89
2022/03/10 02:33:35;;;;;;;;;;;11.60;99.90;;;;;;5052950;28;19917;-90
2022/03/10 02:36:05;;;;;;;;;;;11.60;99.90;;;;;;5052380;28;19921;-90
2022/03/10 02:38:31;;;;;;;;;;;11.60;99.90;;;;;;5055023;28;19992;-90
2022/03/10 02:40:57;;;;;;;;;;;11.70;99.90;;;;;;5036794;28;19999;-90
2022/03/10 02:43:22;;;;;;;;;;;11.70;99.90;;;;;;5053417;28;19995;-91
2022/03/10 02:45:48;;;;;;;;;;;11.70;99.90;;;;;;5034264;28;19913;-89
2022/03/10 02:48:14;;;;;;;;;;;11.70;99.90;;;;;;5052474;28;19909;-90
2022/03/10 02:50:40;;;;;;;;;;;11.70;99.90;;;;;;5053313;28;20273;-89
2022/03/10 02:53:05;;;;;;;;;;;11.70;99.90;;;;;;5054466;28;19962;-90
2022/03/10 02:55:31;;;;;;;;;;;11.70;99.90;;;;;;5034201;28;20408;-89
2022/03/10 02:57:57;;;;;;;;;;;11.70;99.90;;;;;;5034439;28;19917;-90
2022/03/10 03:00:22;;;;;;;;;;;11.70;99.90;;;;;;5033582;28;19928;-89
2022/03/10 03:02:48;;;;;;;;;;;11.70;99.90;;;;;;5052761;28;20310;-89
2022/03/10 03:05:14;;;;;;;;;;;11.70;99.90;;;;;;5052385;28;19995;-89
2022/03/10 03:07:40;;;;;;;;;;;11.70;99.90;;;;;;5033903;28;19916;-89
2022/03/10 03:10:06;;;;;;;;;;;11.70;99.90;;;;;;5033669;28;19952;-89
2022/03/10 03:12:32;;;;;;;;;;;11.60;99.90;;;;;;5052236;28;20373;-90
2022/03/10 03:14:58;;;;;;;;;;;11.60;99.90;;;;;;5051670;28;20002;-89
2022/03/10 03:17:24;;;;;;;;;;;11.60;99.90;;;;;;5052176;28;20365;-90
2022/03/10 03:19:51;;;;;;;;;;;11.60;99.90;;;;;;5033742;28;19952;-90
2022/03/10 03:22:16;;;;;;;;;;;11.70;99.90;;;;;;5051698;28;19909;-90
2022/03/10 03:24:42;;;;;;;;;;;11.60;99.90;;;;;;5033901;28;19908;-90
2022/03/10 03:27:08;;;;;;;;;;;11.60;99.90;;;;;;5034366;28;19991;-90
2022/03/10 03:29:33;;;;;;;;;;;11.60;99.90;;;;;;5051974;28;19913;-90
2022/03/10 03:31:59;;;;;;;;;;;11.60;99.90;;;;;;5033959;28;20306;-94
2022/03/10 03:34:25;;;;;;;;;;;11.60;99.90;;;;;;5051529;28;20354;-90
2022/03/10 03:36:50;;;;;;;;;;;11.60;99.90;;;;;;5033526;28;19913;-89
2022/03/10 03:39:16;;;;;;;;;;;11.60;99.90;;;;;;5051722;28;20027;-89
2022/03/10 03:41:42;;;;;;;;;;;11.50;99.90;;;;;;5034016;28;19920;-90
2022/03/10 03:44:08;;;;;;;;;;;11.50;99.90;;;;;;5033192;28;19912;-90
2022/03/10 03:46:34;;;;;;;;;;;11.60;99.90;;;;;;5033235;28;20358;-89
2022/03/10 03:48:59;;;;;;;;;;;11.50;99.90;;;;;;5051650;28;19916;-89
2022/03/10 03:51:25;;;;;;;;;;;11.50;99.90;;;;;;5051387;28;19909;-90
2022/03/10 03:53:50;;;;;;;;;;;11.50;99.90;;;;;;5033352;28;19909;-89
2022/03/10 03:56:16;;;;;;;;;;;11.50;99.90;;;;;;5033323;28;20011;-90
2022/03/10 03:58:42;;;;;;;;;;;11.50;99.90;;;;;;5050875;28;19913;-90
2022/03/10 04:01:08;;;;;;;;;;;11.50;99.90;;;;;;5033017;28;20290;-90
2022/03/10 04:03:33;;;;;;;;;;;11.50;99.90;;;;;;5033587;28;20296;-90
2022/03/10 04:05:59;;;;;;;;;;;11.50;99.90;;;;;;5032876;28;19915;-90
2022/03/10 04:08:25;;;;;;;;;;;11.50;99.90;;;;;;5051024;28;20332;-90
2022/03/10 04:10:51;;;;;;;;;;;11.50;99.90;;;;;;5033155;28;19916;-90
2022/03/10 04:13:17;;;;;;;;;;;11.50;99.90;;;;;;5050999;28;19955;-90
2022/03/10 04:15:42;;;;;;;;;;;11.40;99.90;;;;;;5033195;28;19909;-90
2022/03/10 04:18:10;;;;;;;;;;;11.40;99.90;;;;;;5032970;28;19916;-90
2022/03/10 04:20:36;;;;;;;;;;;11.40;99.90;;;;;;5032407;28;19923;-90
2022/03/10 04:23:01;;;;;;;;;;;11.40;99.90;;;;;;5050584;28;20350;-89
2022/03/10 04:25:27;;;;;;;;;;;11.40;99.90;;;;;;5050687;28;19954;-90
2022/03/10 04:27:56;;;;;;;;;;;11.30;99.90;;;;;;5051841;28;20381;-91
2022/03/10 04:30:22;;;;;;;;;;;11.30;99.90;;;;;;5034810;28;19996;-89
2022/03/10 04:32:48;;;;;;;;;;;11.30;99.90;;;;;;5033929;28;20297;-90
2022/03/10 04:35:15;;;;;;;;;;;11.20;99.90;;;;;;5030817;28;19925;-89
2022/03/10 04:37:41;;;;;;;;;;;11.10;99.90;;;;;;5028578;28;19909;-89
2022/03/10 04:40:07;;;;;;;;;;;11.10;99.90;;;;;;5030531;28;19962;-89
2022/03/10 04:42:33;;;;;;;;;;;11.10;99.90;;;;;;5030403;28;19983;-89
2022/03/10 04:44:59;;;;;;;;;;;11.10;99.90;;;;;;5028382;28;19916;-89
2022/03/10 04:47:24;;;;;;;;;;;11.10;99.90;;;;;;5030405;28;19909;-89
2022/03/10 04:49:50;;;;;;;;;;;11.10;99.90;;;;;;5031265;28;20000;-90
2022/03/10 04:52:15;;;;;;;;;;;11.10;99.90;;;;;;5028708;28;20362;-89
2022/03/10 04:54:41;;;;;;;;;;;11.20;99.90;;;;;;5029776;28;20005;-89
2022/03/10 04:57:07;;;;;;;;;;;11.20;99.90;;;;;;5028484;28;19913;-89
2022/03/10 04:59:32;;;;;;;;;;;11.20;99.90;;;;;;5029471;28;19917;-89
2022/03/10 05:01:58;;;;;;;;;;;11.20;99.90;;;;;;5029748;28;19909;-89
2022/03/10 05:04:23;;;;;;;;;;;11.20;99.90;;;;;;5029830;28;20267;-89
2022/03/10 05:06:49;;;;;;;;;;;11.20;99.90;;;;;;5028513;28;20106;-89
2022/03/10 05:09:15;;;;;;;;;;;11.20;99.90;;;;;;5028166;28;20037;-89
2022/03/10 05:11:40;;;;;;;;;;;11.20;99.90;;;;;;5029636;28;19945;-89
2022/03/10 05:14:06;;;;;;;;;;;11.10;99.90;;;;;;5030760;28;20446;-89
2022/03/10 05:16:31;;;;;;;;;;;11.20;99.90;;;;;;5017406;28;19914;-89
2022/03/10 05:18:57;;;;;;;;;;;11.10;99.90;;;;;;5012088;28;19909;-89
2022/03/10 05:21:22;;;;;;;;;;;11.10;99.90;;;;;;5010607;28;20080;-90
2022/03/10 05:23:52;;;;;;;;;;;11.20;99.90;;;;;;5010438;28;19960;-89
2022/03/10 05:26:20;;;;;;;;;;;11.20;99.90;;;;;;5010893;28;19913;-89
2022/03/10 05:28:45;;;;;;;;;;;11.20;99.90;;;;;;5016069;28;19999;-89
2022/03/10 05:31:11;;;;;;;;;;;11.20;99.90;;;;;;5029684;28;20003;-89
2022/03/10 05:33:36;;;;;;;;;;;11.30;99.90;;;;;;5035018;28;19909;-90
2022/03/10 05:36:02;;;;;;;;;;;11.20;99.90;;;;;;5050893;28;19920;-89
2022/03/10 05:38:28;;;;;;;;;;;11.30;99.90;;;;;;5053899;28;19909;-90
2022/03/10 05:40:54;;;;;;;;;;;11.30;99.90;;;;;;5053427;28;19924;-89
2022/03/10 05:43:19;;;;;;;;;;;11.30;99.90;;;;;;5035935;28;19928;-89
2022/03/10 05:45:45;;;;;;;;;;;11.20;99.90;;;;;;5035358;28;20393;-89
2022/03/10 05:48:11;;;;;;;;;;;11.20;99.90;;;;;;5053734;28;19908;-90
2022/03/10 05:50:37;;;;;;;;;;;11.30;99.90;;;;;;5035598;28;19916;-90
2022/03/10 05:53:03;;;;;;;;;;;11.30;99.90;;;;;;5053576;28;19908;-90
2022/03/10 05:58:28;;;;;;;;;;;11.30;99.90;;;;;;5023172;22;20306;-90
2022/03/10 06:00:54;;;;;;;;;;;11.30;99.90;;;;;;4996209;28;19942;-89
2022/03/10 06:03:20;;;;;;;;;;;11.30;99.90;;;;;;5014326;28;19910;-89
2022/03/10 06:05:45;;;;;;;;;;;11.30;99.90;;;;;;5014079;28;19913;-89
2022/03/10 06:08:11;;;;;;;;;;;11.30;99.90;;;;;;5014043;28;20322;-89
2022/03/10 06:10:36;;;;;;;;;;;11.30;99.90;;;;;;5013653;28;20360;-89
2022/03/10 06:13:02;;;;;;;;;;;11.30;99.90;;;;;;4996320;28;19933;-89
2022/03/10 06:15:28;;;;;;;;;;;11.30;99.90;;;;;;5013806;28;19952;-89
2022/03/10 06:17:54;;;;;;;;;;;11.20;99.90;;;;;;4998536;28;19948;-90
2022/03/10 06:20:19;;;;;;;;;;;11.20;99.90;;;;;;4996540;28;19972;-89
2022/03/10 06:22:45;;;;;;;;;;;11.30;99.90;;;;;;4998868;28;19975;-89
2022/03/10 06:25:10;;;;;;;;;;;11.20;99.90;;;;;;5013908;28;19910;-88
2022/03/10 06:27:36;;;;;;;;;;;11.20;99.90;;;;;;5014169;28;19996;-89
2022/03/10 06:30:02;;;;;;;;;;;11.10;99.90;;;;;;5005240;28;20001;-89
2022/03/10 06:32:28;;;;;;;;;;;11.10;99.90;;;;;;5014662;28;19913;-89
2022/03/10 06:34:55;;;;;;;;;;;11.10;99.90;;;;;;5032973;28;19916;-89
2022/03/10 06:37:20;;;;;;;;;;;11.00;99.90;;;;;;5017046;28;19933;-89
2022/03/10 06:39:46;;;;;;;;;;;11.00;99.90;;;;;;5018981;28;20407;-89
2022/03/10 06:42:12;;;;;;;;;;;11.00;99.90;;;;;;5010442;28;19909;-89
2022/03/10 06:44:37;;;;;;;;;;;11.00;99.90;;;;;;5013650;28;20362;-89
2022/03/10 06:47:09;;;;;;;;;;;11.00;99.90;;;;;;5014855;28;20013;-90
2022/03/10 06:49:35;;;;;;;;;;;11.00;99.90;;;;;;5014179;28;19932;-89
2022/03/10 06:52:01;;;;;;;;;;;11.00;99.90;;;;;;5032108;28;20439;-88
2022/03/10 06:54:27;;;;;;;;;;;11.00;99.90;;;;;;5031974;28;19955;-89
2022/03/10 06:56:52;;;;;;;;;;;11.00;99.90;;;;;;5014375;28;20019;-89
2022/03/10 06:59:18;;;;;;;;;;;11.10;99.90;;;;;;5031607;28;19913;-88
2022/03/10 07:01:43;;;;;;;;;;;11.10;99.90;;;;;;5031986;28;20358;-88
2022/03/10 07:04:09;;;;;;;;;;;11.20;99.90;;;;;;5014188;28;20286;-89
2022/03/10 07:06:34;;;;;;;;;;;11.20;99.90;;;;;;5014049;28;20340;-88
2022/03/10 07:09:00;;;;;;;;;;;11.10;99.90;;;;;;5031707;28;20296;-89
2022/03/10 07:11:26;;;;;;;;;;;11.10;99.90;;;;;;5013468;28;19917;-88
2022/03/10 07:13:52;;;;;;;;;;;11.10;99.90;;;;;;5012275;28;19909;-88
2022/03/10 07:16:18;;;;;;;;;;;11.20;99.90;;;;;;5012719;28;20394;-88
2022/03/10 07:18:50;;;;;;;;;;;11.20;99.90;;;;;;5012431;28;19963;-88
2022/03/10 07:21:19;;;;;;;;;;;11.20;99.90;;;;;;5012498;28;19918;-88
2022/03/10 07:23:45;;;;;;;;;;;11.30;99.90;;;;;;5012459;28;19976;-88
2022/03/10 07:26:11;;;;;;;;;;;11.30;99.90;;;;;;4994760;28;19913;-88
2022/03/10 07:28:36;;;;;;;;;;;11.30;99.90;;;;;;5012135;28;20287;-88
2022/03/10 07:31:02;;;;;;;;;;;11.30;99.90;;;;;;5012063;28;19913;-88
2022/03/10 07:33:28;;;;;;;;;;;11.40;99.90;;;;;;5012248;28;20326;-88
2022/03/10 07:35:53;;;;;;;;;;;11.40;99.90;;;;;;5012370;28;19952;-88
2022/03/10 07:38:19;;;;;;;;;;;11.40;99.90;;;;;;5012335;28;19909;-88
2022/03/10 07:40:44;;;;;;;;;;;11.50;99.90;;;;;;5012199;28;19921;-89
2022/03/10 07:43:10;;;;;;;;;;;11.50;99.90;;;;;;4994363;28;19913;-88
2022/03/10 07:45:36;;;;;;;;;;;11.50;99.90;;;;;;5012508;28;19909;-89
2022/03/10 07:48:01;;;;;;;;;;;11.50;99.90;;;;;;5012023;28;19910;-88
2022/03/10 07:50:27;;;;;;;;;;;11.50;99.90;;;;;;5012013;28;19920;-89
2022/03/10 07:52:52;;;;;;;;;;;11.60;99.90;;;;;;4994252;28;19916;-89
2022/03/10 07:55:18;;;;;;;;;;;11.70;99.90;;;;;;4994323;28;20009;-89
2022/03/10 07:57:43;;;;;;;;;;;11.80;99.90;;;;;;5011709;28;20406;-89
2022/03/10 08:00:09;;;;;;;;;;;11.90;99.90;;;;;;4994593;28;20004;-88
2022/03/10 08:02:36;;;;;;;;;;;11.90;99.90;;;;;;5031108;28;19913;-89
2022/03/10 08:05:02;;;;;;;;;;;11.90;99.90;;;;;;5031061;28;20104;-88
2022/03/10 08:07:32;;;;;;;;;;;11.90;99.90;;;;;;5004015;28;20054;-89
2022/03/10 08:09:59;;;;;;;;;;;11.80;99.90;;;;;;4994077;28;20262;-89
2022/03/10 08:12:26;;;;;;;;;;;11.80;99.90;;;;;;5013745;28;19960;-89
2022/03/10 08:14:51;;;;;;;;;;;11.90;99.90;;;;;;5032166;28;19909;-89
2022/03/10 08:17:17;;;;;;;;;;;12.00;99.90;;;;;;5030586;28;19921;-89
2022/03/10 08:19:43;;;;;;;;;;;12.00;99.90;;;;;;5018326;28;19923;-89
2022/03/10 08:22:09;;;;;;;;;;;12.00;99.90;;;;;;4994043;28;19932;-89
2022/03/10 08:24:35;;;;;;;;;;;11.90;99.90;;;;;;5011605;28;19920;-89
2022/03/10 08:27:01;;;;;;;;;;;12.00;99.90;;;;;;4993806;28;19976;-89
2022/03/10 08:29:26;;;;;;;;;;;12.00;99.90;;;;;;5011162;28;19913;-88
2022/03/10 08:31:52;;;;;;;;;;;12.00;99.90;;;;;;4993562;28;19971;-90
2022/03/10 08:34:18;;;;;;;;;;;12.10;99.90;;;;;;5011511;28;19910;-89
2022/03/10 08:36:43;;;;;;;;;;;12.10;99.90;;;;;;4993735;28;19909;-88
2022/03/10 08:39:09;;;;;;;;;;;12.20;99.90;;;;;;5011336;28;19909;-89
2022/03/10 08:41:35;;;;;;;;;;;12.20;99.90;;;;;;4993594;28;19971;-88
2022/03/10 08:44:01;;;;;;;;;;;12.10;99.90;;;;;;4993194;28;19916;-88
2022/03/10 08:46:26;;;;;;;;;;;12.10;99.90;;;;;;5011477;28;19913;-89
2022/03/10 08:48:52;;;;;;;;;;;12.10;99.90;;;;;;5026176;28;19957;-89
2022/03/10 08:51:18;;;;;;;;;;;12.10;99.90;;;;;;5030004;28;19910;-88
2022/03/10 08:53:43;;;;;;;;;;;12.10;99.90;;;;;;5021841;28;19964;-89
2022/03/10 08:56:09;;;;;;;;;;;12.10;99.90;;;;;;5010911;28;19910;-89
2022/03/10 08:58:35;;;;;;;;;;;12.10;99.90;;;;;;4993142;28;20398;-89
2022/03/10 09:01:00;;;;;;;;;;;12.00;99.90;;;;;;5011636;28;19923;-88
2022/03/10 09:03:26;;;;;;;;;;;12.10;99.90;;;;;;5011367;28;19917;-89
2022/03/10 09:05:52;;;;;;;;;;;12.10;99.90;;;;;;5017331;28;19909;-89
2022/03/10 09:08:17;;;;;;;;;;;12.10;99.90;;;;;;5011949;28;19916;-89
2022/03/10 09:10:43;;;;;;;;;;;12.10;99.90;;;;;;5029637;28;19909;-89
2022/03/10 09:13:09;;;;;;;;;;;12.10;99.90;;;;;;5029299;28;19916;-88
2022/03/10 09:15:35;;;;;;;;;;;12.10;99.90;;;;;;5029727;28;19913;-89
2022/03/10 09:18:00;;;;;;;;;;;12.20;99.90;;;;;;5029584;28;19996;-88
2022/03/10 09:20:26;;;;;;;;;;;12.20;99.90;;;;;;5011724;28;20407;-89
2022/03/10 09:22:52;;;;;;;;;;;12.30;99.90;;;;;;5029682;28;19913;-89
2022/03/10 09:25:17;;;;;;;;;;;12.30;99.90;;;;;;5011897;28;20320;-89
2022/03/10 09:27:43;;;;;;;;;;;12.10;99.90;;;;;;5029560;28;20440;-88
2022/03/10 09:30:09;;;;;;;;;;;12.10;99.90;;;;;;5011614;28;20402;-88
2022/03/10 09:32:39;;;;;;;;;;;12.10;99.90;;;;;;5011637;28;19913;-88
2022/03/10 09:35:05;;;;;;;;;;;12.10;99.90;;;;;;5011719;28;19913;-88
2022/03/10 09:37:31;;;;;;;;;;;12.10;99.90;;;;;;5029262;28;19910;-88
2022/03/10 09:39:57;;;;;;;;;;;12.10;99.90;;;;;;5011978;28;19940;-89
2022/03/10 09:42:25;;;;;;;;;;;12.00;99.90;;;;;;5029813;28;20004;-88
2022/03/10 09:44:52;;;;;;;;;;;12.10;99.90;;;;;;5011409;28;19913;-89
2022/03/10 09:47:18;;;;;;;;;;;11.90;99.90;;;;;;5029629;28;19921;-91
2022/03/10 09:49:44;;;;;;;;;;;12.00;99.90;;;;;;5011640;28;19913;-88
2022/03/10 09:52:12;;;;;;;;;;;12.10;99.90;;;;;;5029283;28;19915;-89
2022/03/10 09:54:38;;;;;;;;;;;12.20;99.90;;;;;;5029205;28;19924;-89
2022/03/10 09:57:03;;;;;;;;;;;12.20;99.90;;;;;;5011364;28;20344;-89
2022/03/10 09:59:30;;;;;;;;;;;12.30;99.90;;;;;;5011030;28;19919;-88
2022/03/10 10:01:56;;;;;;;;;;;12.40;99.90;;;;;;5011549;28;19913;-88
2022/03/10 10:04:22;;;;;;;;;;;12.50;99.90;;;;;;5033483;28;19910;-88
2022/03/10 10:07:00;;;;;;;;;;;12.60;99.90;;;;;;5029902;28;19909;-88
2022/03/10 10:09:38;;;;;;;;;;;12.60;99.90;;;;;;5011592;28;20346;-88
2022/03/10 10:12:07;;;;;;;;;;;12.60;99.90;;;;;;5011462;28;19909;-88
2022/03/10 10:14:38;;;;;;;;;;;12.60;99.90;;;;;;5028611;28;19909;-88
2022/03/10 10:17:04;;;;;;;;;;;12.50;99.90;;;;;;5029516;28;19917;-88
2022/03/10 10:19:31;;;;;;;;;;;12.40;99.90;;;;;;5009281;28;19914;-88
2022/03/10 10:22:13;;;;;;;;;;;12.30;99.90;;;;;;4996249;28;19909;-89
2022/03/10 10:24:39;;;;;;;;;;;12.20;99.90;;;;;;4996211;28;19952;-89
2022/03/10 10:27:13;;;;;;;;;;;12.10;99.90;;;;;;4996061;28;19914;-88
2022/03/10 10:29:49;;;;;;;;;;;12.20;99.90;;;;;;5013355;28;19909;-89
2022/03/10 10:32:23;;;;;;;;;;;12.20;99.90;;;;;;5013806;28;20294;-88
2022/03/10 10:35:01;;;;;;;;;;;12.20;99.90;;;;;;4997090;28;19991;-89
2022/03/10 10:37:27;;;;;;;;;;;12.40;99.90;;;;;;5014551;28;19928;-88
2022/03/10 10:39:53;;;;;;;;;;;12.80;99.90;;;;;;5014166;28;20377;-88
2022/03/10 10:42:18;;;;;;;;;;;13.00;99.90;;;;;;5032335;28;19909;-88
2022/03/10 10:44:44;;;;;;;;;;;13.30;99.90;;;;;;5031901;28;19909;-88
2022/03/10 10:47:09;;;;;;;;;;;13.40;99.90;;;;;;5014870;28;20373;-89
2022/03/10 10:49:38;;;;;;;;;;;13.60;99.90;;;;;;5032335;28;19920;-88
2022/03/10 10:52:09;;;;;;;;;;;13.70;99.90;;;;;;5014436;28;19910;-88
2022/03/10 10:54:35;;;;;;;;;;;13.80;99.90;;;;;;5032472;28;19984;-88
2022/03/10 10:57:07;;;;;;;;;;;13.80;99.90;;;;;;5031783;28;19928;-88
2022/03/10 10:59:34;;;;;;;;;;;13.70;99.90;;;;;;5013938;28;19921;-88
2022/03/10 11:02:12;;;;;;;;;;;13.70;99.90;;;;;;5031860;28;19921;-88
2022/03/10 11:04:39;;;;;;;;;;;13.90;99.90;;;;;;5032338;28;19909;-87
2022/03/10 11:07:05;;;;;;;;;;;13.90;99.90;;;;;;5031918;28;19909;-88
2022/03/10 11:09:31;;;;;;;;;;;14.00;99.90;;;;;;5031874;28;19913;-88
2022/03/10 11:11:57;;;;;;;;;;;13.90;99.90;;;;;;5014035;28;20131;-88
2022/03/10 11:14:23;;;;;;;;;;;13.80;99.90;;;;;;5013531;28;20440;-88
2022/03/10 11:16:49;;;;;;;;;;;13.80;99.90;;;;;;5013749;28;19909;-88
2022/03/10 11:19:15;;;;;;;;;;;13.70;99.90;;;;;;5013786;28;19909;-87
2022/03/10 11:21:41;;;;;;;;;;;13.70;99.90;;;;;;5024337;28;19917;-88
2022/03/10 11:24:09;;;;;;;;;;;13.80;99.90;;;;;;5031692;28;19916;-88
2022/03/10 11:26:40;;;;;;;;;;;13.70;99.90;;;;;;5013875;28;19909;-88
2022/03/10 11:45:35;;;;;;;;;;;;;;;;;;;;;
2022/03/10 14:11:08;;;;;;;;;;;12.50;99.90;;;;;;4934689;29;19970;-90
2022/03/10 14:13:35;;;;;;;;;;;12.50;99.90;;;;;;4934744;29;20269;-89
2022/03/10 14:16:01;;;;;;;;;;;12.40;99.90;;;;;;4936812;29;20368;-89
2022/03/10 14:18:27;;;;;;;;;;;12.40;99.90;;;;;;4936107;29;19911;-90
2022/03/10 14:20:56;;;;;;;;;;;12.30;99.90;;;;;;4936590;29;20543;-89
2022/03/10 14:23:22;;;;;;;;;;;12.10;99.90;;;;;;4939075;29;19915;-90
2022/03/10 14:25:52;;;;;;;;;;;12.10;99.90;;;;;;4935429;29;19922;-90
2022/03/10 14:28:31;;;;;;;;;;;12.10;99.90;;;;;;4938322;28;19902;-90
2022/03/10 14:30:57;;;;;;;;;;;12.00;99.90;;;;;;4936295;29;20054;-89
2022/03/10 14:33:23;;;;;;;;;;;11.80;99.90;;;;;;4937227;29;19914;-90
2022/03/10 14:35:49;;;;;;;;;;;11.90;99.90;;;;;;4935691;29;19922;-90
2022/03/10 14:38:16;;;;;;;;;;;11.90;99.90;;;;;;4938775;29;19911;-90
2022/03/10 14:40:42;;;;;;;;;;;12.00;99.90;;;;;;4937152;29;19929;-90
2022/03/10 14:43:09;;;;;;;;;;;11.90;99.90;;;;;;4936203;29;19910;-90
2022/03/10 14:45:34;;;;;;;;;;;11.90;99.90;;;;;;4938160;29;19946;-90
2022/03/10 14:48:00;;;;;;;;;;;12.00;99.90;;;;;;4937691;29;19911;-90
2022/03/10 14:50:26;;;;;;;;;;;12.00;99.90;;;;;;4935817;29;20015;-89
2022/03/10 14:52:52;;;;;;;;;;;12.00;99.90;;;;;;4934335;29;20019;-90
2022/03/10 14:55:18;;;;;;;;;;;12.00;99.90;;;;;;4935958;29;20006;-89
2022/03/10 14:57:43;;;;;;;;;;;12.10;99.90;;;;;;4934913;29;19962;-89
2022/03/10 15:00:10;;;;;;;;;;;12.10;99.90;;;;;;4935260;29;19922;-89
2022/03/10 15:02:36;;;;;;;;;;;12.10;99.90;;;;;;4935513;29;20312;-88
2022/03/10 15:05:03;;;;;;;;;;;12.00;99.90;;;;;;4934360;29;19911;-88
2022/03/10 15:07:28;;;;;;;;;;;12.00;99.90;;;;;;4936441;29;20002;-88
2022/03/10 15:09:54;;;;;;;;;;;12.00;99.90;;;;;;4934872;29;20439;-88
2022/03/10 15:12:19;;;;;;;;;;;12.10;99.90;;;;;;4934962;29;19911;-88
2022/03/10 15:14:45;;;;;;;;;;;12.20;99.90;;;;;;4934396;29;20371;-88
2022/03/10 15:17:11;;;;;;;;;;;12.60;99.90;;;;;;4934974;28;19915;-88
2022/03/10 15:19:37;;;;;;;;;;;13.00;99.90;;;;;;4935018;29;20013;-89
2022/03/10 15:22:04;;;;;;;;;;;13.20;99.90;;;;;;4933502;29;19915;-89
2022/03/10 15:24:30;;;;;;;;;;;13.30;99.90;;;;;;4936072;29;19911;-89
2022/03/10 15:26:55;;;;;;;;;;;13.30;99.90;;;;;;4934894;29;20398;-89
2022/03/10 15:29:21;;;;;;;;;;;13.20;99.90;;;;;;4935097;29;20106;-90
2022/03/10 15:31:47;;;;;;;;;;;13.00;99.90;;;;;;4936495;28;19929;-89
2022/03/10 15:34:13;;;;;;;;;;;12.80;99.90;;;;;;4939025;28;19919;-90
2022/03/10 15:36:41;;;;;;;;;;;12.80;99.90;;;;;;4938155;29;20002;-90
2022/03/10 15:39:08;;;;;;;;;;;12.70;99.90;;;;;;4945608;29;19914;-91
2022/03/10 15:41:34;;;;;;;;;;;12.90;99.90;;;;;;4939462;28;19931;-91
2022/03/10 15:44:00;;;;;;;;;;;13.40;99.90;;;;;;4942452;28;19926;-91
2022/03/10 15:46:26;;;;;;;;;;;13.30;99.90;;;;;;4937483;29;19918;-91
2022/03/10 15:48:55;;;;;;;;;;;13.20;99.90;;;;;;4939585;29;19915;-92
2022/03/10 15:51:26;;;;;;;;;;;13.80;99.90;;;;;;4938789;29;19998;-92
2022/03/10 15:54:00;;;;;;;;;;;15.90;99.90;;;;;;4935278;29;19951;-93
2022/03/10 16:08:54;;;;;;;;;;;22.50;99.90;;;;;;4878433;29;19942;-92
2022/03/10 16:11:20;;;;;;;;;;;22.70;99.90;;;;;;4939842;29;19919;-90
2022/03/10 16:13:45;;;;;;;;;;;23.10;99.90;;;;;;4934199;29;20303;-94
2022/03/10 16:16:14;;;;;;;;;;;22.80;99.90;;;;;;4933878;29;19922;-91
2022/03/10 16:18:42;;;;;;;;;;;22.10;99.90;;;;;;4937169;29;19962;-91
2022/03/10 16:21:07;;;;;;;;;;;22.30;99.90;;;;;;4938740;29;19919;-93
2022/03/10 16:23:33;;;;;;;;;;;23.50;99.90;;;;;;4933843;29;19911;-90
2022/03/10 16:25:59;;;;;;;;;;;21.90;99.90;;;;;;4933971;29;19934;-91
2022/03/10 16:28:24;;;;;;;;;;;23.70;99.90;;;;;;4933860;29;19911;-96
2022/03/10 16:30:53;;;;;;;;;;;23.80;99.90;;;;;;4933600;29;19958;-94
2022/03/10 16:33:18;;;;;;;;;;;23.00;99.90;;;;;;4934244;29;19986;-93
2022/03/10 16:35:49;;;;;;;;;;;22.60;99.90;;;;;;4936271;29;20373;-93
2022/03/10 16:38:15;;;;;;;;;;;21.70;99.90;;;;;;4937259;29;19911;-93
2022/03/10 16:40:41;;;;;;;;;;;21.90;99.90;;;;;;4933274;29;19930;-89
2022/03/10 16:43:06;;;;;;;;;;;22.80;99.90;;;;;;4933087;29;19958;-93
2022/03/10 16:45:32;;;;;;;;;;;23.90;99.90;;;;;;4934891;29;19930;-91
2022/03/10 16:47:57;;;;;;;;;;;23.30;99.90;;;;;;4933491;29;20296;-90
2022/03/10 16:50:24;;;;;;;;;;;23.30;99.90;;;;;;4932498;29;19993;-89
2022/03/10 16:52:49;;;;;;;;;;;22.30;99.80;;;;;;4932758;29;19911;-90
2022/03/10 16:55:16;;;;;;;;;;;21.40;99.90;;;;;;4933154;29;19918;-93
2022/03/10 16:57:42;;;;;;;;;;;19.60;99.90;;;;;;4934799;29;19911;-89
2022/03/10 17:00:08;;;;;;;;;;;17.70;99.90;;;;;;4933297;29;20304;-87
2022/03/10 17:02:34;;;;;;;;;;;15.80;99.90;;;;;;4933473;29;19922;-87
2022/03/10 17:04:59;;;;;;;;;;;14.70;99.90;;;;;;4933241;29;20005;-89
2022/03/10 17:07:25;;;;;;;;;;;14.00;99.90;;;;;;4932940;29;20418;-89
2022/03/10 17:09:51;;;;;;;;;;;13.70;99.90;;;;;;4932788;29;20014;-88
2022/03/10 17:12:16;;;;;;;;;;;13.30;99.90;;;;;;4931199;29;20451;-89
2022/03/10 17:14:42;;;;;;;;;;;13.20;99.90;;;;;;4931364;29;20006;-89